Portada
METAR-TAF:

METAR-TAF

Aeropuertos :

Aeropuerto de Naha

Naha, Japón

latitud: 26-11N, longitud: 127-39E, altitud: 3 m

Observación

El informe se hizo hace 38 minutos, a las 23:00 UTC
Viento 6 kt del noreste
Temperatura 18°C
Humedad 68%
Presión 1024 hPa
Visibilidad 10 km o más
Escasas nubes a una altura de 3500 ft

METAR: ROAH 132300Z 05006KT 9999 FEW035 18/12 Q1024 RMK 2SC035 A3024

Hora: 08:38 (23:38 UTC)

Pronóstico

El informe se hizo hace 6 horas y 31 minutos, a las 17:07 UTC
Pronóstico válido del 13 a las 18 UTC al 15 a las 00 UTC
Viento 9 kt del norte-noreste
Visibilidad 10 km o más
Escasas nubes a una altura de 2500 ft

TAF: ROAH 131707Z 1318/1500 03009KT 9999 FEW025

Observaciones y pronósticos meteorológicos de más de 4000 aeropuertos (mensajes METAR y TAF).

Los puntos amarillos y rojos representan las estaciones disponibles.

Ponga el ratón en el punto deseado para ver el nombre de la estación.

Haga clic para ver las observaciones y los pronósticos meteorológicos.

Para cambiar el mapa : haga clic en los botones verdes con una cruz de color negro para hacer un zoom, en el botón verde con un guión para alejar o en las flechas verdes para mapas adyacentes.


METAR-TAF: